Time;durP1;ratioP1;P1;durP2;ratioP2;P2;SDS_P1;SDS_P2;PMS_P1;PMS_P2;Temp;Humidity;BMP_temperature;BMP_pressure;BME280_temperature;BME280_humidity;BME280_pressure;Samples;Min_cycle;Max_cycle;Signal;HPM_P1;HPM_P2
2022/01/03 00:00:29;;;;;;;3.80;1.80;;;;;;;-141.50;100.00;63355.56;5088860;28;20412;-80
2022/01/03 00:02:58;;;;;;;8.73;2.72;;;;;;;-141.50;100.00;63355.56;5087759;28;20051;-79
2022/01/03 00:05:25;;;;;;;5.57;2.00;;;;;;;-141.50;100.00;63355.56;5087562;28;20063;-78
2022/01/03 00:07:52;;;;;;;9.32;1.85;;;;;;;-141.50;100.00;63355.56;5088086;28;20060;-80
2022/01/03 00:10:19;;;;;;;4.35;2.00;;;;;;;-141.50;100.00;63355.56;5088114;28;20055;-79
2022/01/03 00:12:49;;;;;;;7.10;1.98;;;;;;;-141.50;100.00;63355.56;5088530;28;20097;-81
2022/01/03 00:15:17;;;;;;;9.75;2.00;;;;;;;-141.50;100.00;63355.56;5088937;28;20044;-80
2022/01/03 00:17:44;;;;;;;9.30;2.03;;;;;;;-141.50;100.00;63355.56;5076067;28;20086;-81
2022/01/03 00:20:12;;;;;;;9.02;1.92;;;;;;;-141.50;100.00;63355.56;5073270;28;20105;-81
2022/01/03 00:23:04;;;;;;;12.00;1.75;;;;;;;-141.50;100.00;63355.56;5071302;28;20048;-82
2022/01/03 00:25:36;;;;;;;12.10;2.35;;;;;;;-141.50;100.00;63355.56;5079220;28;20067;-79
2022/01/03 00:28:15;;;;;;;3.50;1.70;;;;;;;-141.50;100.00;63355.56;5076944;28;20082;-80
2022/01/03 00:30:44;;;;;;;7.55;1.73;;;;;;;-141.50;100.00;63355.56;5079576;28;20052;-79
2022/01/03 00:33:11;;;;;;;5.22;1.80;;;;;;;-141.50;100.00;63355.56;5075795;28;20053;-79
2022/01/03 00:35:41;;;;;;;5.95;1.83;;;;;;;-141.50;100.00;63355.56;5070722;28;20056;-81
2022/01/03 00:38:10;;;;;;;8.93;2.00;;;;;;;-141.50;100.00;63355.56;5072298;28;20109;-77
2022/01/03 00:40:38;;;;;;;6.93;2.08;;;;;;;-141.50;100.00;63355.56;5070891;28;20441;-81
2022/01/03 00:43:05;;;;;;;12.20;2.05;;;;;;;-141.50;100.00;63355.56;5072838;28;20059;-82
2022/01/03 00:45:32;;;;;;;7.22;2.30;;;;;;;-141.50;100.00;63355.56;5073595;28;20045;-82
2022/01/03 00:47:59;;;;;;;8.18;1.90;;;;;;;-141.50;100.00;63355.56;5072383;28;20082;-82
2022/01/03 00:50:25;;;;;;;6.90;2.00;;;;;;;-141.50;100.00;63355.56;5070586;28;20052;-82
2022/01/03 00:52:52;;;;;;;7.57;2.15;;;;;;;-141.50;100.00;63355.56;5074419;28;20048;-77
2022/01/03 00:55:19;;;;;;;10.13;2.45;;;;;;;-141.50;100.00;63355.56;5076381;28;20040;-80
2022/01/03 00:58:00;;;;;;;9.63;2.25;;;;;;;-141.50;100.00;63355.56;5079048;28;20055;-78
2022/01/03 01:00:31;;;;;;;6.00;1.90;;;;;;;-141.50;100.00;63355.56;5081026;28;20105;-80
2022/01/03 01:03:05;;;;;;;12.20;2.00;;;;;;;-141.50;100.00;63355.56;5072609;28;20131;-80
2022/01/03 01:05:32;;;;;;;16.48;1.80;;;;;;;-141.50;100.00;63355.56;5071526;28;20092;-81
2022/01/03 01:07:59;;;;;;;6.68;2.20;;;;;;;-141.50;100.00;63355.56;5071194;28;20621;-81
2022/01/03 01:10:31;;;;;;;7.30;1.25;;;;;;;-141.50;100.00;63355.56;5070580;28;20052;-79
2022/01/03 01:12:58;;;;;;;5.95;0.95;;;;;;;-141.50;100.00;63355.56;5069313;28;20048;-79
2022/01/03 01:15:26;;;;;;;6.78;0.63;;;;;;;-141.50;100.00;63355.56;5071690;28;20051;-78
2022/01/03 01:17:54;;;;;;;5.25;0.55;;;;;;;-141.50;100.00;63355.56;5069207;28;20048;-79
2022/01/03 01:20:21;;;;;;;1.48;0.47;;;;;;;-141.50;100.00;63355.56;5070219;28;20072;-78
2022/01/03 01:22:48;;;;;;;5.53;0.32;;;;;;;-141.50;100.00;63355.56;5070273;28;20096;-78
2022/01/03 01:27:47;;;;;;;5.07;0.30;;;;;;;-141.50;100.00;63355.56;5070466;28;20049;-78
2022/01/03 01:30:19;;;;;;;5.60;0.30;;;;;;;-141.50;100.00;63355.56;5069201;28;20063;-79
2022/01/03 01:32:54;;;;;;;6.03;0.38;;;;;;;-141.50;100.00;63355.56;5069741;28;20056;-79
2022/01/03 01:35:24;;;;;;;2.47;0.40;;;;;;;-141.50;100.00;63355.56;5072097;28;20041;-79
2022/01/03 01:37:55;;;;;;;3.33;0.50;;;;;;;-141.50;100.00;63355.56;5070910;28;20052;-79
2022/01/03 01:40:23;;;;;;;3.47;0.30;;;;;;;-141.50;100.00;63355.56;5069929;28;20048;-78
2022/01/03 01:42:49;;;;;;;4.75;0.40;;;;;;;-141.50;100.00;63355.56;5069720;28;20057;-79
2022/01/03 01:45:19;;;;;;;0.90;0.30;;;;;;;-141.50;100.00;63355.56;5071959;28;20044;-79
2022/01/03 01:47:48;;;;;;;2.42;0.25;;;;;;;-141.50;100.00;63355.56;5071664;28;20493;-79
2022/01/03 01:50:15;;;;;;;0.80;0.20;;;;;;;-141.50;100.00;63355.56;5072259;28;20048;-78
2022/01/03 01:52:45;;;;;;;0.30;0.13;;;;;;;-141.50;100.00;63355.56;5072868;28;20125;-79
2022/01/03 01:55:14;;;;;;;4.90;0.38;;;;;;;-141.50;100.00;63355.56;5073184;28;20117;-80
2022/01/03 01:58:03;;;;;;;1.40;0.20;;;;;;;-141.50;100.00;63355.56;5070917;28;20059;-78
2022/01/03 02:00:32;;;;;;;1.58;0.20;;;;;;;-141.50;100.00;63355.56;5084545;28;20087;-79
2022/01/03 02:03:18;;;;;;;1.33;0.30;;;;;;;-141.50;100.00;63355.56;5085573;28;20550;-78
2022/01/03 02:06:01;;;;;;;1.08;0.20;;;;;;;-141.50;100.00;63355.56;5094402;28;20016;-79
2022/01/03 02:08:33;;;;;;;0.73;0.20;;;;;;;-141.50;100.00;63355.56;5092394;28;20062;-77
2022/01/03 02:11:27;;;;;;;2.28;0.40;;;;;;;-141.50;100.00;63355.56;5079442;28;20484;-77
2022/01/03 02:13:53;;;;;;;1.25;0.30;;;;;;;-141.50;100.00;63355.56;5068552;28;20056;-79
2022/01/03 02:16:20;;;;;;;0.80;0.20;;;;;;;-141.50;100.00;63355.56;5069914;28;20102;-79
2022/01/03 02:18:47;;;;;;;1.15;0.32;;;;;;;-141.50;100.00;63355.56;5068284;28;20056;-79
2022/01/03 02:21:14;;;;;;;3.55;0.40;;;;;;;-141.50;100.00;63355.56;5070365;28;20048;-79
2022/01/03 02:23:41;;;;;;;3.00;0.30;;;;;;;-141.50;100.00;63355.56;5070107;28;20049;-75
2022/01/03 02:26:07;;;;;;;2.72;0.40;;;;;;;-141.50;100.00;63355.56;5070021;28;20110;-77
2022/01/03 02:28:34;;;;;;;5.00;0.75;;;;;;;-141.50;100.00;63355.56;5068163;28;20056;-79
2022/01/03 02:31:00;;;;;;;2.70;0.50;;;;;;;-141.50;100.00;63355.56;5070439;28;20106;-78
2022/01/03 02:33:27;;;;;;;1.65;0.40;;;;;;;-141.50;100.00;63355.56;5067810;28;20045;-80
2022/01/03 02:35:54;;;;;;;2.05;0.55;;;;;;;-141.50;100.00;63355.56;5068908;28;20048;-78
2022/01/03 02:38:20;;;;;;;2.38;0.50;;;;;;;-141.50;100.00;63355.56;5069364;28;20058;-78
2022/01/03 02:40:48;;;;;;;3.45;0.65;;;;;;;-141.50;100.00;63355.56;5067508;28;20052;-79
2022/01/03 02:43:14;;;;;;;3.50;0.40;;;;;;;-141.50;100.00;63355.56;5067118;28;20110;-78
2022/01/03 02:45:41;;;;;;;2.53;0.50;;;;;;;-141.50;100.00;63355.56;5070300;28;20495;-80
2022/01/03 02:48:08;;;;;;;5.15;0.50;;;;;;;-141.50;100.00;63355.56;5068045;28;20056;-76
2022/01/03 02:50:36;;;;;;;2.55;0.60;;;;;;;-141.50;100.00;63355.56;5068197;28;20048;-79
2022/01/03 02:53:03;;;;;;;1.92;0.50;;;;;;;-141.50;100.00;63355.56;5067606;28;20493;-80
2022/01/03 02:55:31;;;;;;;2.30;0.40;;;;;;;-141.50;100.00;63355.56;5070378;28;20097;-82
2022/01/03 02:58:05;;;;;;;2.50;0.52;;;;;;;-141.50;100.00;63355.56;5071434;28;20082;-79
2022/01/03 03:00:36;;;;;;;2.17;0.50;;;;;;;-141.50;100.00;63355.56;5073383;28;20044;-83
2022/01/03 03:03:04;;;;;;;2.72;0.50;;;;;;;-141.50;100.00;63355.56;5071914;28;20102;-79
2022/01/03 03:05:31;;;;;;;2.17;0.47;;;;;;;-141.50;100.00;63355.56;5073367;28;20106;-79
2022/01/03 03:07:57;;;;;;;5.68;0.60;;;;;;;-141.50;100.00;63355.56;5074318;28;20049;-78
2022/01/03 03:10:26;;;;;;;1.30;0.40;;;;;;;-141.50;100.00;63355.56;5073528;28;20120;-79
2022/01/03 03:12:52;;;;;;;1.27;0.38;;;;;;;-141.50;100.00;63355.56;5073074;28;20087;-79
2022/01/03 03:15:22;;;;;;;2.60;0.40;;;;;;;-141.50;100.00;63355.56;5072610;28;20048;-80
2022/01/03 03:17:50;;;;;;;2.58;0.75;;;;;;;-141.50;100.00;63355.56;5071486;28;20052;-78
2022/01/03 03:20:20;;;;;;;2.95;0.40;;;;;;;-141.50;100.00;63355.56;5071738;28;20053;-79
2022/01/03 03:22:50;;;;;;;1.25;0.40;;;;;;;-141.50;100.00;63355.56;5073964;28;20048;-81
2022/01/03 03:25:20;;;;;;;3.15;0.50;;;;;;;-141.50;100.00;63355.56;5073481;28;20040;-79
2022/01/03 03:27:49;;;;;;;3.67;0.55;;;;;;;-141.50;100.00;63355.56;5073890;28;20075;-80
2022/01/03 03:30:18;;;;;;;1.90;0.70;;;;;;;-141.50;100.00;63355.56;5071946;28;20122;-78
2022/01/03 03:32:46;;;;;;;1.52;0.50;;;;;;;-141.50;100.00;63355.56;5072830;28;20076;-79
2022/01/03 03:35:14;;;;;;;2.53;0.60;;;;;;;-141.50;100.00;63355.56;5073459;28;20051;-80
2022/01/03 03:37:41;;;;;;;2.15;0.50;;;;;;;-141.50;100.00;63355.56;5073228;28;20052;-80
2022/01/03 03:40:08;;;;;;;2.55;0.60;;;;;;;-141.50;100.00;63355.56;5073094;28;20048;-80
2022/01/03 03:42:35;;;;;;;1.42;0.40;;;;;;;-141.50;100.00;63355.56;5072477;28;20473;-80
2022/01/03 03:45:03;;;;;;;2.72;0.80;;;;;;;-141.50;100.00;63355.56;5072968;28;20048;-80
2022/01/03 03:47:30;;;;;;;1.95;0.70;;;;;;;-141.50;100.00;63355.56;5071787;28;20063;-78
2022/01/03 03:49:57;;;;;;;1.85;0.43;;;;;;;-141.50;100.00;63355.56;5071684;28;20048;-79
2022/01/03 03:52:24;;;;;;;1.50;0.57;;;;;;;-141.50;100.00;63355.56;5071873;28;20132;-78
2022/01/03 03:54:50;;;;;;;2.80;0.98;;;;;;;-141.50;100.00;63355.56;5074076;28;20066;-79
2022/01/03 03:57:17;;;;;;;2.45;0.70;;;;;;;-141.50;100.00;63355.56;5073746;28;20098;-79
2022/01/03 03:59:43;;;;;;;3.70;0.52;;;;;;;-141.50;100.00;63355.56;5072875;28;20108;-80
2022/01/03 04:02:10;;;;;;;2.65;0.60;;;;;;;-141.50;100.00;63355.56;5070992;28;20056;-80
2022/01/03 04:04:37;;;;;;;2.30;0.60;;;;;;;-141.50;100.00;63355.56;5073779;28;20135;-79
2022/01/03 04:07:04;;;;;;;1.85;0.60;;;;;;;-141.50;100.00;63355.56;5071083;28;20087;-80
2022/01/03 04:09:30;;;;;;;2.00;0.73;;;;;;;-141.50;100.00;63355.56;5072069;28;20684;-79
2022/01/03 04:11:57;;;;;;;4.53;0.70;;;;;;;-141.50;100.00;63355.56;5071186;28;20567;-81
2022/01/03 04:14:24;;;;;;;1.33;0.50;;;;;;;-141.50;100.00;63355.56;5072213;28;20044;-80
2022/01/03 04:16:50;;;;;;;3.45;0.60;;;;;;;-141.50;100.00;63355.56;5073222;28;20044;-78
2022/01/03 04:19:17;;;;;;;2.20;0.50;;;;;;;-141.50;100.00;63355.56;5070072;28;20510;-81
2022/01/03 04:21:44;;;;;;;3.05;0.57;;;;;;;-141.50;100.00;63355.56;5071606;28;20060;-80
2022/01/03 04:24:11;;;;;;;1.05;0.43;;;;;;;-141.50;100.00;63355.56;5072031;28;20052;-80
2022/01/03 04:26:39;;;;;;;1.77;0.65;;;;;;;-141.50;100.00;63355.56;5072436;28;20048;-80
2022/01/03 04:29:07;;;;;;;4.10;0.90;;;;;;;-141.50;100.00;63355.56;5070653;28;20053;-79
2022/01/03 04:31:37;;;;;;;1.85;0.65;;;;;;;-141.50;100.00;63355.56;5070762;28;20067;-79
2022/01/03 04:34:03;;;;;;;2.38;0.80;;;;;;;-141.50;100.00;63355.56;5069576;28;20056;-80
2022/01/03 04:36:30;;;;;;;3.08;0.70;;;;;;;-141.50;100.00;63355.56;5070103;28;20051;-78
2022/01/03 04:38:57;;;;;;;1.98;0.57;;;;;;;-141.50;100.00;63355.56;5071296;28;20075;-78
2022/01/03 04:41:24;;;;;;;2.88;0.70;;;;;;;-141.50;100.00;63355.56;5071745;28;20057;-78
2022/01/03 04:43:50;;;;;;;5.05;0.68;;;;;;;-141.50;100.00;63355.56;5070162;28;20082;-79
2022/01/03 04:46:17;;;;;;;4.95;0.93;;;;;;;-141.50;100.00;63355.56;5071718;28;20074;-80
2022/01/03 04:48:43;;;;;;;3.15;0.82;;;;;;;-141.50;100.00;63355.56;5069921;28;20555;-79
2022/01/03 04:51:11;;;;;;;3.60;0.77;;;;;;;-141.50;100.00;63355.56;5069251;28;20052;-80
2022/01/03 04:53:40;;;;;;;4.80;0.63;;;;;;;-141.50;100.00;63355.56;5071991;28;20052;-80
2022/01/03 04:56:08;;;;;;;3.55;0.63;;;;;;;-141.50;100.00;63355.56;5070203;28;20048;-78
2022/01/03 04:58:36;;;;;;;3.85;0.63;;;;;;;-141.50;100.00;63355.56;5069379;28;20048;-80
2022/01/03 05:01:02;;;;;;;5.32;0.98;;;;;;;-141.50;100.00;63355.56;5070826;28;20056;-80
2022/01/03 05:03:29;;;;;;;4.05;0.80;;;;;;;-141.50;100.00;63355.56;5071450;28;20447;-81
2022/01/03 05:05:56;;;;;;;6.60;0.68;;;;;;;-141.50;100.00;63355.56;5070290;28;20048;-80
2022/01/03 05:08:23;;;;;;;7.93;0.90;;;;;;;-141.50;100.00;63355.56;5071544;28;20425;-79
2022/01/03 05:10:50;;;;;;;7.75;0.70;;;;;;;-141.50;100.00;63355.56;5070391;28;20067;-81
2022/01/03 05:13:17;;;;;;;2.38;0.70;;;;;;;-141.50;100.00;63355.56;5069873;28;20053;-80
2022/01/03 05:15:43;;;;;;;5.65;1.45;;;;;;;-141.50;100.00;63355.56;5078766;28;20422;-80
2022/01/03 05:18:10;;;;;;;4.22;0.70;;;;;;;-141.50;100.00;63355.56;5068657;28;20098;-78
2022/01/03 05:20:37;;;;;;;2.83;0.70;;;;;;;-141.50;100.00;63355.56;5069793;28;20040;-80
2022/01/03 05:23:03;;;;;;;5.97;0.80;;;;;;;-141.50;100.00;63355.56;5071232;28;20070;-79
2022/01/03 05:25:30;;;;;;;3.63;0.88;;;;;;;-141.50;100.00;63355.56;5071810;28;20045;-80
2022/01/03 05:27:56;;;;;;;3.03;0.60;;;;;;;-141.50;100.00;63355.56;5077056;28;20404;-78
2022/01/03 05:30:23;;;;;;;7.18;1.00;;;;;;;-141.50;100.00;63355.56;5093464;28;20045;-78
2022/01/03 05:32:50;;;;;;;5.82;1.02;;;;;;;-141.50;100.00;63355.56;5096219;28;20082;-79
2022/01/03 05:35:16;;;;;;;4.15;0.80;;;;;;;-141.50;100.00;63355.56;5092937;28;20055;-80
2022/01/03 05:37:43;;;;;;;8.00;0.95;;;;;;;-141.50;100.00;63355.56;5076792;28;20052;-81
2022/01/03 05:40:10;;;;;;;5.82;0.90;;;;;;;-141.50;100.00;63355.56;5073253;28;20056;-79
2022/01/03 05:42:36;;;;;;;6.50;1.13;;;;;;;-141.50;100.00;63355.56;5073970;28;20053;-80
2022/01/03 05:45:04;;;;;;;8.75;1.40;;;;;;;-141.50;100.00;63355.56;5087866;28;20070;-79
2022/01/03 05:47:31;;;;;;;7.22;1.23;;;;;;;-141.50;100.00;63355.56;5101514;28;20036;-80
2022/01/03 05:49:57;;;;;;;7.70;1.15;;;;;;;-141.50;100.00;63355.56;5092700;28;20672;-81
2022/01/03 05:52:24;;;;;;;12.15;1.70;;;;;;;-141.50;100.00;63355.56;5092429;28;20261;-79
2022/01/03 05:54:52;;;;;;;8.23;1.10;;;;;;;-141.50;100.00;63355.56;5092429;28;20072;-79
2022/01/03 05:57:19;;;;;;;6.65;1.30;;;;;;;-141.50;100.00;63355.56;5095364;28;20052;-80
2022/01/03 05:59:45;;;;;;;6.03;1.08;;;;;;;-141.50;100.00;63355.56;5090005;28;20048;-81
2022/01/03 06:02:12;;;;;;;4.78;0.80;;;;;;;-141.50;100.00;63355.56;5089778;28;20048;-81
2022/01/03 06:07:18;;;;;;;7.88;1.20;;;;;;;-141.50;100.00;63355.56;5092807;28;20052;-80
2022/01/03 06:09:45;;;;;;;4.28;0.88;;;;;;;-141.50;100.00;63355.56;5093598;28;20131;-79
2022/01/03 06:12:13;;;;;;;5.57;1.05;;;;;;;-141.50;100.00;63355.56;5093905;28;20152;-81
2022/01/03 06:14:39;;;;;;;6.85;1.00;;;;;;;-141.50;100.00;63355.56;5079613;28;20488;-80
2022/01/03 06:17:06;;;;;;;5.75;1.15;;;;;;;-141.50;100.00;63355.56;5082071;28;20068;-79
2022/01/03 06:19:35;;;;;;;1.92;0.60;;;;;;;-141.50;100.00;63355.56;5083659;28;20056;-79
2022/01/03 06:22:03;;;;;;;7.72;1.08;;;;;;;-141.50;100.00;63355.56;5087148;28;20104;-81
2022/01/03 06:24:30;;;;;;;8.77;1.10;;;;;;;-141.50;100.00;63355.56;5086746;28;20066;-81
2022/01/03 06:26:58;;;;;;;4.72;1.08;;;;;;;-141.50;100.00;63355.56;5086608;28;20135;-81
2022/01/03 06:29:24;;;;;;;4.85;0.80;;;;;;;-141.50;100.00;63355.56;5083051;28;20467;-82
2022/01/03 06:31:51;;;;;;;4.63;0.82;;;;;;;-141.50;100.00;63355.56;5076896;28;20162;-80
2022/01/03 06:34:17;;;;;;;5.68;1.17;;;;;;;-141.50;100.00;63355.56;5085417;28;20044;-78
2022/01/03 06:36:45;;;;;;;4.35;0.90;;;;;;;-141.50;100.00;63355.56;5099710;28;20052;-82
2022/01/03 06:39:12;;;;;;;5.43;1.20;;;;;;;-141.50;100.00;63355.56;5105406;28;20052;-80
2022/01/03 06:41:40;;;;;;;8.07;0.85;;;;;;;-141.50;100.00;63355.56;5103566;28;20047;-80
2022/01/03 06:44:07;;;;;;;7.85;0.90;;;;;;;-141.50;100.00;63355.56;5109266;28;20121;-80
2022/01/03 06:46:34;;;;;;;8.95;0.77;;;;;;;-141.50;100.00;63355.56;5110021;28;20115;-82
2022/01/03 06:49:05;;;;;;;7.60;1.10;;;;;;;-141.50;100.00;63355.56;5093550;28;20097;-81
2022/01/03 06:51:34;;;;;;;5.70;0.95;;;;;;;-141.50;100.00;63355.56;5093589;28;20056;-82
2022/01/03 06:54:03;;;;;;;5.70;1.20;;;;;;;-141.50;100.00;63355.56;5091695;28;20113;-81
2022/01/03 06:56:29;;;;;;;8.05;1.33;;;;;;;-141.50;100.00;63355.56;5094221;28;20044;-78
2022/01/03 06:58:56;;;;;;;4.95;1.17;;;;;;;-141.50;100.00;63355.56;5087715;28;20092;-81
2022/01/03 07:01:23;;;;;;;7.40;0.80;;;;;;;-141.50;100.00;63355.56;5110602;28;20056;-82
2022/01/03 07:03:49;;;;;;;5.65;1.10;;;;;;;-141.50;100.00;63355.56;5073387;28;20056;-82
2022/01/03 07:06:16;;;;;;;5.88;0.90;;;;;;;-141.50;100.00;63355.56;5078557;28;20105;-82
2022/01/03 07:08:43;;;;;;;8.27;1.27;;;;;;;-141.50;100.00;63355.56;5091947;28;20048;-80
2022/01/03 07:11:09;;;;;;;11.73;1.20;;;;;;;-141.50;100.00;63355.56;5096318;28;20135;-83
2022/01/03 07:13:44;;;;;;;12.10;1.38;;;;;;;-141.50;100.00;63355.56;5092825;28;20466;-82
2022/01/03 07:18:56;;;;;;;6.37;1.07;;;;;;;-141.50;100.00;63355.56;5092521;28;20051;-81
2022/01/03 07:21:24;;;;;;;7.75;1.20;;;;;;;-141.50;100.00;63355.56;5092113;28;20052;-81
2022/01/03 07:23:51;;;;;;;10.23;1.65;;;;;;;-141.50;100.00;63355.56;5093796;28;20058;-80
2022/01/03 07:26:18;;;;;;;5.75;0.93;;;;;;;-141.50;100.00;63355.56;5092152;28;20128;-84
2022/01/03 07:28:45;;;;;;;11.48;1.10;;;;;;;-141.50;100.00;63355.56;5092176;28;20095;-82
2022/01/03 07:31:11;;;;;;;12.20;1.42;;;;;;;-141.50;100.00;63355.56;5076893;28;20086;-83
2022/01/03 07:33:38;;;;;;;6.82;1.30;;;;;;;-141.50;100.00;63355.56;5076750;28;20071;-83
2022/01/03 07:36:04;;;;;;;6.82;1.10;;;;;;;-141.50;100.00;63355.56;5093450;28;20048;-81
2022/01/03 07:38:31;;;;;;;7.53;1.23;;;;;;;-141.50;100.00;63355.56;5094032;28;20080;-82
2022/01/03 07:40:57;;;;;;;10.23;1.40;;;;;;;-141.50;100.00;63355.56;5093311;28;20055;-82
2022/01/03 07:43:24;;;;;;;6.68;1.58;;;;;;;-141.50;100.00;63355.56;5091494;28;20044;-83
2022/01/03 07:45:51;;;;;;;13.45;1.02;;;;;;;-141.50;100.00;63355.56;5108037;28;20078;-80
2022/01/03 07:48:20;;;;;;;14.15;1.40;;;;;;;-141.50;100.00;63355.56;5115504;28;20106;-81
2022/01/03 07:50:46;;;;;;;7.10;1.42;;;;;;;-141.50;100.00;63355.56;5120208;28;20142;-82
2022/01/03 07:53:13;;;;;;;8.13;1.33;;;;;;;-141.50;100.00;63355.56;5112842;28;20143;-83
2022/01/03 07:55:42;;;;;;;9.27;1.17;;;;;;;-141.50;100.00;63355.56;5113034;28;20056;-82
2022/01/03 07:58:09;;;;;;;8.52;1.33;;;;;;;-141.50;100.00;63355.56;5114571;28;20055;-80
2022/01/03 08:00:35;;;;;;;8.65;1.13;;;;;;;-141.50;100.00;63355.56;5113635;28;20085;-83
2022/01/03 08:03:02;;;;;;;13.30;1.30;;;;;;;-141.50;100.00;63355.56;5113524;28;20055;-83
2022/01/03 08:05:29;;;;;;;11.48;1.20;;;;;;;-141.50;100.00;63355.56;5109453;28;20055;-82
2022/01/03 08:07:55;;;;;;;12.98;1.42;;;;;;;-141.50;100.00;63355.56;5114332;28;20096;-80
2022/01/03 08:10:23;;;;;;;7.40;1.23;;;;;;;-141.50;100.00;63355.56;5112359;28;20051;-79
2022/01/03 08:12:49;;;;;;;7.93;1.13;;;;;;;-141.50;100.00;63355.56;5111742;28;20081;-79
2022/01/03 08:15:16;;;;;;;9.93;1.20;;;;;;;-141.50;100.00;63355.56;5104977;28;20048;-78
2022/01/03 08:17:46;;;;;;;8.95;1.25;;;;;;;-141.50;100.00;63355.56;5088708;28;20052;-78
2022/01/03 08:20:13;;;;;;;7.18;1.08;;;;;;;-141.50;100.00;63355.56;5090679;28;20051;-80
2022/01/03 08:22:39;;;;;;;8.52;1.35;;;;;;;-141.50;100.00;63355.56;5093062;28;20063;-79
2022/01/03 08:25:06;;;;;;;10.15;1.38;;;;;;;-141.50;100.00;63355.56;5089479;28;20457;-79
2022/01/03 08:27:33;;;;;;;6.13;1.35;;;;;;;-141.50;100.00;63355.56;5092192;28;20075;-79
2022/01/03 08:29:59;;;;;;;13.13;1.40;;;;;;;-141.50;100.00;63355.56;5093606;28;20051;-79
2022/01/03 08:32:26;;;;;;;7.07;1.27;;;;;;;-141.50;100.00;63355.56;5092563;28;20104;-80
2022/01/03 08:34:53;;;;;;;6.70;1.17;;;;;;;-141.50;100.00;63355.56;5094577;28;20531;-79
2022/01/03 08:37:19;;;;;;;10.00;1.52;;;;;;;-141.50;100.00;63355.56;5108728;28;20043;-79
2022/01/03 08:39:46;;;;;;;7.38;1.13;;;;;;;-141.50;100.00;63355.56;5113742;28;20059;-79
2022/01/03 08:42:12;;;;;;;8.43;1.20;;;;;;;-141.50;100.00;63355.56;5113856;28;20099;-79
2022/01/03 08:44:39;;;;;;;6.65;1.55;;;;;;;-141.50;100.00;63355.56;5115671;28;20109;-79
2022/01/03 08:47:06;;;;;;;8.77;1.10;;;;;;;-141.50;100.00;63355.56;5113893;28;20051;-80
2022/01/03 08:49:32;;;;;;;7.18;1.20;;;;;;;-141.50;100.00;63355.56;5114787;28;20101;-79
2022/01/03 08:52:01;;;;;;;7.88;1.20;;;;;;;-141.50;100.00;63355.56;5114418;28;20456;-78
2022/01/03 08:54:28;;;;;;;6.82;1.00;;;;;;;-141.50;100.00;63355.56;5125707;27;20058;-79
2022/01/03 08:56:55;;;;;;;8.32;1.17;;;;;;;-141.50;100.00;63355.56;5120937;28;20048;-79
2022/01/03 08:59:21;;;;;;;8.18;1.10;;;;;;;-141.50;100.00;63355.56;5096033;28;20121;-78
2022/01/03 09:01:48;;;;;;;10.18;1.40;;;;;;;-141.50;100.00;63355.56;5090917;28;20640;-78
2022/01/03 09:04:15;;;;;;;7.47;1.10;;;;;;;-141.50;100.00;63355.56;5091215;28;20052;-78
2022/01/03 09:06:41;;;;;;;11.25;1.33;;;;;;;-141.50;100.00;63355.56;5091119;28;20044;-78
2022/01/03 09:09:08;;;;;;;8.15;1.13;;;;;;;-141.50;100.00;63355.56;5089012;28;20079;-77
2022/01/03 09:11:35;;;;;;;5.05;1.10;;;;;;;-141.50;100.00;63355.56;5091269;28;20674;-78
2022/01/03 09:14:02;;;;;;;6.60;1.17;;;;;;;-141.50;100.00;63355.56;5089525;28;20052;-76
2022/01/03 09:16:29;;;;;;;7.65;1.10;;;;;;;-141.50;100.00;63355.56;5091977;28;20582;-80
2022/01/03 09:18:55;;;;;;;5.88;0.90;;;;;;;-141.50;100.00;63355.56;5090742;28;20063;-80
2022/01/03 09:21:22;;;;;;;6.30;1.10;;;;;;;-141.50;100.00;63355.56;5092728;28;20052;-79
2022/01/03 09:23:53;;;;;;;5.85;1.38;;;;;;;-141.50;100.00;63355.56;5093260;28;20412;-80
2022/01/03 09:29:05;;;;;;;3.13;0.53;;;;;;;-141.50;100.00;63355.56;5089279;28;20047;-77
2022/01/03 09:31:36;;;;;;;5.43;1.00;;;;;;;-141.50;100.00;63355.56;5090080;28;20385;-79
2022/01/03 09:34:05;;;;;;;8.27;1.30;;;;;;;-141.50;100.00;63355.56;5099308;28;20091;-78
2022/01/03 09:36:32;;;;;;;6.32;1.20;;;;;;;-141.50;100.00;63355.56;5092790;28;20102;-80
2022/01/03 09:38:59;;;;;;;5.25;0.93;;;;;;;-141.50;100.00;63355.56;5092034;28;20082;-77
2022/01/03 09:41:28;;;;;;;5.80;1.02;;;;;;;-141.50;100.00;63355.56;5091659;28;20048;-78
2022/01/03 09:44:03;;;;;;;9.02;1.02;;;;;;;-141.50;100.00;63355.56;5096546;28;20051;-79
2022/01/03 09:46:39;;;;;;;7.25;1.30;;;;;;;-141.50;100.00;63355.56;5093306;28;20067;-78
2022/01/03 09:49:08;;;;;;;8.38;1.15;;;;;;;-141.50;100.00;63355.56;5089799;28;20071;-80
2022/01/03 09:51:36;;;;;;;6.63;1.23;;;;;;;-141.50;100.00;63355.56;5091707;28;20047;-78
2022/01/03 09:54:07;;;;;;;6.22;1.10;;;;;;;-141.50;100.00;63355.56;5091904;28;20645;-78
2022/01/03 09:56:37;;;;;;;6.00;1.08;;;;;;;-141.50;100.00;63355.56;5089223;28;20048;-79
2022/01/03 09:59:05;;;;;;;8.75;1.20;;;;;;;-141.50;100.00;63355.56;5089755;28;20083;-78
2022/01/03 10:01:33;;;;;;;7.90;1.23;;;;;;;-141.50;100.00;63355.56;5089695;28;20101;-78
2022/01/03 10:04:01;;;;;;;7.15;1.20;;;;;;;-141.50;100.00;63355.56;5089489;28;20048;-79
2022/01/03 10:06:28;;;;;;;6.40;1.00;;;;;;;-141.50;100.00;63355.56;5070776;28;20040;-78
2022/01/03 10:08:55;;;;;;;10.60;1.05;;;;;;;-141.50;100.00;63355.56;5080540;28;20094;-78
2022/01/03 10:11:23;;;;;;;7.20;1.60;;;;;;;-141.50;100.00;63355.56;5107310;28;20066;-78
2022/01/03 10:13:50;;;;;;;7.30;1.40;;;;;;;-141.50;100.00;63355.56;5094779;28;20504;-78
2022/01/03 10:16:17;;;;;;;6.60;1.35;;;;;;;-141.50;100.00;63355.56;5092219;28;20075;-78
2022/01/03 10:19:03;;;;;;;6.68;1.20;;;;;;;-141.50;100.00;63355.56;5090811;28;20051;-78
2022/01/03 10:21:45;;;;;;;7.35;1.38;;;;;;;-141.50;100.00;63355.56;5095082;28;20051;-78
2022/01/03 10:24:14;;;;;;;7.68;1.20;;;;;;;-141.50;100.00;63355.56;5096672;28;20520;-78
2022/01/03 10:26:43;;;;;;;6.82;1.10;;;;;;;-141.50;100.00;63355.56;5094399;28;20040;-78
2022/01/03 10:29:19;;;;;;;7.25;1.42;;;;;;;-141.50;100.00;63355.56;5093594;28;20105;-78
2022/01/03 10:31:48;;;;;;;7.70;1.10;;;;;;;-141.50;100.00;63355.56;5094068;28;20303;-77
2022/01/03 10:34:18;;;;;;;4.93;1.02;;;;;;;-141.50;100.00;63355.56;5094329;28;20139;-78
2022/01/03 10:36:47;;;;;;;7.53;1.13;;;;;;;-141.50;100.00;63355.56;5095040;28;20072;-79
2022/01/03 10:39:34;;;;;;;7.50;1.15;;;;;;;-141.50;100.00;63355.56;5095334;28;20109;-77
2022/01/03 10:42:17;;;;;;;6.47;1.30;;;;;;;-141.50;100.00;63355.56;5093080;28;20256;-79
2022/01/03 10:44:45;;;;;;;7.05;1.30;;;;;;;-141.50;100.00;63355.56;5095719;28;20561;-79
2022/01/03 10:47:15;;;;;;;6.35;1.45;;;;;;;-141.50;100.00;63355.56;5111846;28;20504;-80
2022/01/03 10:49:44;;;;;;;10.60;1.35;;;;;;;-141.50;100.00;63355.56;5114306;28;20047;-79
2022/01/03 10:52:11;;;;;;;4.60;0.93;;;;;;;-141.50;100.00;63355.56;5112632;28;20086;-78
2022/01/03 10:54:38;;;;;;;6.15;0.98;;;;;;;-141.50;100.00;63355.56;5107701;28;20416;-79
2022/01/03 10:57:05;;;;;;;5.90;1.23;;;;;;;-141.50;100.00;63355.56;5110889;28;20048;-78
2022/01/03 10:59:34;;;;;;;8.13;1.42;;;;;;;-141.50;100.00;63355.56;5113917;28;20048;-78
2022/01/03 11:02:04;;;;;;;6.05;1.10;;;;;;;-141.50;100.00;63355.56;5113103;28;20048;-79
2022/01/03 11:13:16;;;;;;;8.45;1.20;;;;;;;-141.50;100.00;63355.56;5091236;28;20090;-79
2022/01/03 11:16:03;;;;;;;9.07;1.42;;;;;;;-141.50;100.00;63355.56;5076038;28;20105;-79
2022/01/03 11:18:34;;;;;;;5.63;0.90;;;;;;;-141.50;100.00;63355.56;5071787;28;20052;-79
2022/01/03 11:21:09;;;;;;;6.50;1.23;;;;;;;-141.50;100.00;63355.56;5080122;28;20052;-78
2022/01/03 11:23:36;;;;;;;6.80;1.33;;;;;;;-141.50;100.00;63355.56;5096171;28;20055;-78
2022/01/03 11:26:11;;;;;;;9.15;1.25;;;;;;;-141.50;100.00;63355.56;5079888;28;20045;-77
2022/01/03 11:28:42;;;;;;;7.13;1.15;;;;;;;-141.50;100.00;63355.56;5086763;28;20047;-79
2022/01/03 11:31:12;;;;;;;8.63;1.25;;;;;;;-141.50;100.00;63355.56;5079276;28;20082;-78
2022/01/03 11:33:40;;;;;;;8.73;1.08;;;;;;;-141.50;100.00;63355.56;5093907;28;20048;-79